createdAt,value
2023-05-10T00:00:30.287Z,99632.00
2023-05-10T00:03:06.512Z,99644.00
2023-05-10T00:05:40.818Z,99633.00
2023-05-10T00:08:14.783Z,99633.00
2023-05-10T00:10:48.821Z,99636.00
2023-05-10T00:13:22.490Z,99639.00
2023-05-10T00:15:55.893Z,99635.00
2023-05-10T00:18:31.233Z,99640.00
2023-05-10T00:21:05.209Z,99640.00
2023-05-10T00:23:39.246Z,99636.00
2023-05-10T00:26:13.385Z,99637.00
2023-05-10T00:28:47.217Z,99641.00
2023-05-10T00:31:21.557Z,99641.00
2023-05-10T00:33:57.603Z,99636.00
2023-05-10T00:36:32.555Z,99639.00
2023-05-10T00:39:06.334Z,99634.00
2023-05-10T00:41:40.208Z,99636.00
2023-05-10T00:44:14.028Z,99637.00
2023-05-10T00:46:49.258Z,99639.00
2023-05-10T00:49:24.459Z,99634.00
2023-05-10T00:51:58.307Z,99633.00
2023-05-10T00:54:33.033Z,99635.00
2023-05-10T00:57:07.297Z,99643.00
2023-05-10T00:59:41.216Z,99638.00
2023-05-10T01:02:15.739Z,99634.00
2023-05-10T01:04:53.281Z,99624.00
2023-05-10T01:07:27.102Z,99638.00
2023-05-10T01:10:02.315Z,99633.00
2023-05-10T01:12:38.590Z,99643.00
2023-05-10T01:15:14.398Z,99644.00
2023-05-10T01:17:50.499Z,99647.00
2023-05-10T01:20:27.148Z,99648.00
2023-05-10T01:23:33.354Z,99653.00
2023-05-10T01:27:00.369Z,99654.00
2023-05-10T01:30:15.955Z,99650.00
2023-05-10T01:33:03.920Z,99658.00
2023-05-10T01:35:47.426Z,99660.00
2023-05-10T01:38:32.349Z,99662.00
2023-05-10T01:41:21.102Z,99660.00
2023-05-10T01:44:04.162Z,99653.00
2023-05-10T01:46:40.246Z,99664.00
2023-05-10T01:49:25.863Z,99665.00
2023-05-10T01:52:08.894Z,99659.00
2023-05-10T01:54:56.170Z,99651.00
2023-05-10T01:57:41.483Z,99656.00
2023-05-10T02:00:17.995Z,99665.00
2023-05-10T02:02:54.231Z,99661.00
2023-05-10T02:05:32.657Z,99663.00
2023-05-10T02:08:10.012Z,99661.00
2023-05-10T02:10:45.952Z,99661.00
2023-05-10T02:13:21.409Z,99669.00
2023-05-10T02:15:57.395Z,99679.00
2023-05-10T02:18:32.514Z,99673.00
2023-05-10T02:21:10.750Z,99678.00
2023-05-10T02:23:47.613Z,99675.00
2023-05-10T02:26:26.006Z,99668.00
2023-05-10T02:29:04.499Z,99677.00
2023-05-10T02:31:39.937Z,99686.00
2023-05-10T02:34:15.247Z,99691.00
2023-05-10T02:36:51.287Z,99685.00
2023-05-10T02:39:27.448Z,99687.00
2023-05-10T02:42:03.398Z,99686.00
2023-05-10T02:44:39.054Z,99685.00
2023-05-10T02:47:12.460Z,99677.00
2023-05-10T02:49:46.059Z,99690.00
2023-05-10T02:52:28.978Z,99687.00
2023-05-10T02:55:07.509Z,99685.00
2023-05-10T02:57:46.737Z,99690.00
2023-05-10T03:00:22.233Z,99685.00
2023-05-10T03:02:56.838Z,99681.00
2023-05-10T03:05:30.380Z,99678.00
2023-05-10T03:08:07.317Z,99687.00
2023-05-10T03:11:05.844Z,99693.00
2023-05-10T03:13:52.031Z,99691.00
2023-05-10T03:16:36.848Z,99686.00
2023-05-10T03:19:22.279Z,99688.00
2023-05-10T03:22:02.415Z,99686.00
2023-05-10T03:24:41.316Z,99695.00
2023-05-10T03:27:18.332Z,99696.00
2023-05-10T03:29:53.579Z,99691.00
2023-05-10T03:32:28.237Z,99697.00
2023-05-10T03:35:03.386Z,99698.00
2023-05-10T03:37:37.445Z,99702.00
2023-05-10T03:40:14.182Z,99701.00
2023-05-10T03:42:48.227Z,99703.00
2023-05-10T03:45:21.895Z,99706.00
2023-05-10T03:47:56.629Z,99704.00
2023-05-10T03:50:30.450Z,99710.00
2023-05-10T03:53:04.433Z,99714.00
2023-05-10T03:55:39.537Z,99711.00
2023-05-10T03:58:14.228Z,99708.00
2023-05-10T04:00:48.230Z,99722.00
2023-05-10T04:03:22.454Z,99716.00
2023-05-10T04:06:03.250Z,99707.00
2023-05-10T04:08:37.854Z,99711.00
2023-05-10T04:11:15.454Z,99709.00
2023-05-10T04:13:49.480Z,99710.00
2023-05-10T04:16:23.106Z,99713.00
2023-05-10T04:18:56.589Z,99716.00
2023-05-10T04:21:30.366Z,99725.00
2023-05-10T04:24:04.134Z,99725.00
2023-05-10T04:26:39.299Z,99730.00
2023-05-10T04:29:13.073Z,99724.00
2023-05-10T04:31:46.774Z,99732.00
2023-05-10T04:34:20.314Z,99728.00
2023-05-10T04:36:54.224Z,99728.00
2023-05-10T04:39:28.180Z,99713.00
2023-05-10T04:42:03.977Z,99727.00
2023-05-10T04:44:38.457Z,99738.00
2023-05-10T04:47:13.775Z,99734.00
2023-05-10T04:49:47.301Z,99729.00
2023-05-10T04:52:20.725Z,99728.00
2023-05-10T04:54:54.496Z,99740.00
2023-05-10T04:57:30.159Z,99742.00
2023-05-10T05:00:04.582Z,99743.00
2023-05-10T05:02:38.651Z,99747.00
2023-05-10T05:05:12.935Z,99745.00
2023-05-10T05:07:46.580Z,99740.00
2023-05-10T05:10:20.749Z,99747.00
2023-05-10T05:12:56.185Z,99752.00
2023-05-10T05:15:31.345Z,99751.00
2023-05-10T05:18:05.279Z,99753.00
2023-05-10T05:20:39.393Z,99760.00
2023-05-10T05:23:12.896Z,99755.00
2023-05-10T05:25:46.893Z,99757.00
2023-05-10T05:28:22.342Z,99754.00
2023-05-10T05:30:55.853Z,99761.00
2023-05-10T05:33:29.468Z,99756.00
2023-05-10T05:36:06.775Z,99767.00
2023-05-10T05:38:40.607Z,99759.00
2023-05-10T05:41:15.313Z,99761.00
2023-05-10T05:43:50.715Z,99763.00
2023-05-10T05:46:24.244Z,99765.00
2023-05-10T05:48:58.402Z,99766.00
2023-05-10T05:51:32.318Z,99772.00
2023-05-10T05:54:06.430Z,99774.00
2023-05-10T05:56:40.423Z,99771.00
2023-05-10T05:59:15.560Z,99778.00
2023-05-10T06:01:49.415Z,99783.00
2023-05-10T06:04:23.601Z,99787.00
2023-05-10T06:06:57.378Z,99784.00
2023-05-10T06:09:31.315Z,99789.00
2023-05-10T06:12:05.434Z,99792.00
2023-05-10T06:14:41.100Z,99792.00
2023-05-10T06:17:14.474Z,99806.00
2023-05-10T06:19:48.379Z,99800.00
2023-05-10T06:22:23.616Z,99813.00
2023-05-10T06:24:57.277Z,99806.00
2023-05-10T06:27:31.607Z,99812.00
2023-05-10T06:30:13.370Z,99813.00
2023-05-10T06:32:47.917Z,99811.00
2023-05-10T06:35:21.884Z,99818.00
2023-05-10T06:37:55.857Z,99819.00
2023-05-10T06:40:30.482Z,99822.00
2023-05-10T06:43:04.372Z,99830.00
2023-05-10T06:45:39.966Z,99811.00
2023-05-10T06:48:13.727Z,99822.00
2023-05-10T06:50:47.121Z,99828.00
2023-05-10T06:53:20.914Z,99812.00
2023-05-10T06:55:54.658Z,99820.00
2023-05-10T06:58:28.467Z,99827.00
2023-05-10T07:01:06.743Z,99826.00
2023-05-10T07:03:40.386Z,99830.00
2023-05-10T07:06:29.490Z,99836.00
2023-05-10T07:09:07.303Z,99837.00
2023-05-10T07:11:40.834Z,99839.00
2023-05-10T07:14:15.243Z,99838.00
2023-05-10T07:16:50.608Z,99835.00
2023-05-10T07:19:24.840Z,99831.00
2023-05-10T07:22:00.549Z,99839.00
2023-05-10T07:24:36.013Z,99842.00
2023-05-10T07:27:10.159Z,99836.00
2023-05-10T07:29:44.632Z,99841.00
2023-05-10T07:32:19.909Z,99840.00
2023-05-10T07:34:53.776Z,99837.00
2023-05-10T07:37:27.476Z,99834.00
2023-05-10T07:40:02.668Z,99839.00
2023-05-10T07:42:36.596Z,99843.00
2023-05-10T07:45:11.671Z,99850.00
2023-05-10T07:47:47.025Z,99850.00
2023-05-10T07:50:20.894Z,99847.00
2023-05-10T07:52:55.039Z,99850.00
2023-05-10T07:55:29.702Z,99852.00
2023-05-10T07:58:04.612Z,99853.00
2023-05-10T08:00:40.693Z,99849.00
2023-05-10T08:03:16.314Z,99858.00
2023-05-10T08:05:50.136Z,99873.00
2023-05-10T08:08:25.245Z,99865.00
2023-05-10T08:10:58.990Z,99868.00
2023-05-10T08:13:34.120Z,99867.00
2023-05-10T08:16:08.582Z,99874.00
2023-05-10T08:18:44.018Z,99877.00
2023-05-10T08:21:18.433Z,99879.00
2023-05-10T08:23:52.305Z,99875.00
2023-05-10T08:26:25.962Z,99889.00
2023-05-10T08:28:59.886Z,99889.00
2023-05-10T08:31:33.812Z,99897.00
2023-05-10T08:34:09.317Z,99897.00
2023-05-10T08:36:43.409Z,99905.00
2023-05-10T08:39:29.376Z,99895.00
2023-05-10T08:42:07.225Z,99901.00
2023-05-10T08:44:41.184Z,99909.00
2023-05-10T08:47:19.066Z,99903.00
2023-05-10T08:49:56.106Z,99909.00
2023-05-10T08:52:32.708Z,99913.00
2023-05-10T08:55:08.415Z,99914.00
2023-05-10T08:57:42.325Z,99915.00
2023-05-10T09:00:17.985Z,99915.00
2023-05-10T09:02:53.359Z,99918.00
2023-05-10T09:05:28.514Z,99921.00
2023-05-10T09:08:02.647Z,99914.00
2023-05-10T09:10:36.836Z,99915.00
2023-05-10T09:13:13.972Z,99914.00
2023-05-10T09:15:49.391Z,99925.00
2023-05-10T09:18:23.465Z,99925.00
2023-05-10T09:20:59.403Z,99924.00
2023-05-10T09:23:33.418Z,99935.00
2023-05-10T09:26:07.749Z,99931.00
2023-05-10T09:28:55.385Z,99929.00
2023-05-10T09:31:47.806Z,99930.00
2023-05-10T09:34:23.228Z,99931.00
2023-05-10T09:37:02.398Z,99934.00
2023-05-10T09:39:37.723Z,99933.00
2023-05-10T09:42:12.481Z,99943.00
2023-05-10T09:44:49.364Z,99936.00
2023-05-10T09:47:23.619Z,99932.00
2023-05-10T09:50:00.180Z,99938.00
2023-05-10T09:52:51.420Z,99939.00
2023-05-10T09:55:27.149Z,99941.00
2023-05-10T09:58:05.518Z,99949.00
2023-05-10T10:00:41.896Z,99940.00
2023-05-10T10:03:17.539Z,99955.00
2023-05-10T10:05:52.534Z,99945.00
2023-05-10T10:08:28.277Z,99943.00
2023-05-10T10:11:02.722Z,99941.00
2023-05-10T10:13:37.633Z,99934.00
2023-05-10T10:16:12.135Z,99945.00
2023-05-10T10:18:46.833Z,99944.00
2023-05-10T10:21:21.846Z,99947.00
2023-05-10T10:23:57.185Z,99945.00
2023-05-10T10:26:31.990Z,99953.00
2023-05-10T10:29:26.233Z,99958.00
2023-05-10T10:32:13.386Z,99959.00
2023-05-10T10:34:47.293Z,99963.00
2023-05-10T10:37:21.526Z,99960.00
2023-05-10T10:39:59.290Z,99958.00
2023-05-10T10:42:51.034Z,99955.00
2023-05-10T10:45:26.381Z,99965.00
2023-05-10T10:48:24.978Z,99967.00
2023-05-10T10:51:02.951Z,99972.00
2023-05-10T10:53:37.193Z,99968.00
2023-05-10T10:56:16.372Z,99967.00
2023-05-10T10:58:54.936Z,99975.00
2023-05-10T11:01:36.556Z,99972.00
2023-05-10T11:04:22.713Z,99964.00
2023-05-10T11:07:20.314Z,99975.00
2023-05-10T11:09:54.323Z,99985.00
2023-05-10T11:12:29.478Z,99981.00
2023-05-10T11:15:03.632Z,99989.00
2023-05-10T11:17:38.679Z,99992.00
2023-05-10T11:20:16.829Z,99990.00
2023-05-10T11:22:54.796Z,99997.00
2023-05-10T11:25:30.440Z,99996.00
2023-05-10T11:28:07.260Z,99993.00
2023-05-10T11:30:42.362Z,99992.00
2023-05-10T11:33:20.837Z,99993.00
2023-05-10T11:35:54.564Z,100003.00
2023-05-10T11:38:30.295Z,100004.00
2023-05-10T11:41:04.443Z,100008.00
2023-05-10T11:43:41.357Z,100007.00
2023-05-10T11:46:16.375Z,100007.00
2023-05-10T11:48:53.096Z,100006.00
2023-05-10T11:51:28.249Z,100017.00
2023-05-10T11:54:03.910Z,100000.00
2023-05-10T11:56:38.709Z,100015.00
2023-05-10T11:59:17.425Z,100013.00
2023-05-10T12:01:51.947Z,100015.00
2023-05-10T12:04:26.040Z,100021.00
2023-05-10T12:07:00.364Z,100031.00
2023-05-10T12:09:43.778Z,100029.00
2023-05-10T12:12:20.316Z,100021.00
2023-05-10T12:14:55.563Z,100017.00
2023-05-10T12:17:31.648Z,100018.00
2023-05-10T12:20:18.506Z,100025.00
2023-05-10T12:22:55.585Z,100025.00
2023-05-10T12:25:34.240Z,100022.00
2023-05-10T12:28:11.137Z,100025.00
2023-05-10T12:30:47.091Z,100022.00
2023-05-10T12:33:21.002Z,100018.00
2023-05-10T12:35:57.751Z,100020.00
2023-05-10T12:38:35.956Z,100023.00
2023-05-10T12:41:12.493Z,100016.00
2023-05-10T12:43:48.165Z,100026.00
2023-05-10T12:46:26.473Z,100023.00
2023-05-10T12:49:08.419Z,100028.00
2023-05-10T12:51:43.298Z,100034.00
2023-05-10T12:54:17.296Z,100043.00
2023-05-10T12:56:50.878Z,100042.00
2023-05-10T12:59:24.685Z,100040.00
2023-05-10T13:02:00.442Z,100035.00
2023-05-10T13:04:35.074Z,100048.00
2023-05-10T13:07:09.065Z,100039.00
2023-05-10T13:09:43.023Z,100051.00
2023-05-10T13:12:17.056Z,100041.00
2023-05-10T13:14:50.993Z,100039.00
2023-05-10T13:17:28.831Z,100037.00
2023-05-10T13:20:02.477Z,100047.00
2023-05-10T13:22:40.600Z,100042.00
2023-05-10T13:25:15.552Z,100037.00
2023-05-10T13:27:49.071Z,100046.00
2023-05-10T13:30:22.825Z,100044.00
2023-05-10T13:32:58.673Z,100042.00
2023-05-10T13:35:32.370Z,100038.00
2023-05-10T13:38:08.989Z,100031.00
2023-05-10T13:40:42.900Z,100034.00
2023-05-10T13:43:16.481Z,100032.00
2023-05-10T13:45:50.505Z,100037.00
2023-05-10T13:48:26.607Z,100039.00
2023-05-10T13:51:00.738Z,100032.00
2023-05-10T13:53:34.729Z,100036.00
2023-05-10T13:56:09.239Z,100033.00
2023-05-10T13:58:44.100Z,100028.00
2023-05-10T14:01:17.640Z,100024.00
2023-05-10T14:03:53.106Z,100015.00
2023-05-10T14:06:28.017Z,100029.00
2023-05-10T14:09:01.650Z,100026.00
2023-05-10T14:11:35.285Z,100029.00
2023-05-10T14:14:09.226Z,100026.00
2023-05-10T14:16:46.558Z,100023.00
2023-05-10T14:19:22.485Z,100023.00
2023-05-10T14:21:56.583Z,100024.00
2023-05-10T14:24:30.641Z,100018.00
2023-05-10T14:27:04.062Z,100017.00
2023-05-10T14:29:37.486Z,100024.00
2023-05-10T14:32:11.555Z,100022.00
2023-05-10T14:34:47.173Z,100007.00
2023-05-10T14:37:21.159Z,100019.00
2023-05-10T14:39:55.082Z,100016.00
2023-05-10T14:42:29.509Z,100021.00
2023-05-10T14:45:03.462Z,100023.00
2023-05-10T14:47:37.206Z,100018.00
2023-05-10T14:50:21.482Z,100024.00
2023-05-10T14:53:06.183Z,100027.00
2023-05-10T14:55:40.399Z,100019.00
2023-05-10T14:58:15.258Z,100029.00
2023-05-10T15:00:50.043Z,100022.00
2023-05-10T15:03:24.627Z,100021.00
2023-05-10T15:06:00.143Z,100021.00
2023-05-10T15:08:33.700Z,100017.00
2023-05-10T15:11:08.112Z,100017.00
2023-05-10T15:13:41.927Z,100010.00
2023-05-10T15:16:15.937Z,100017.00
2023-05-10T15:18:50.223Z,100009.00
2023-05-10T15:21:26.132Z,100012.00
2023-05-10T15:23:59.649Z,100015.00
2023-05-10T15:26:34.152Z,100015.00
2023-05-10T15:29:08.066Z,100015.00
2023-05-10T15:31:41.770Z,100018.00
2023-05-10T15:34:16.381Z,100018.00
2023-05-10T15:36:51.642Z,100025.00
2023-05-10T15:39:25.351Z,100029.00
2023-05-10T15:41:59.156Z,100027.00
2023-05-10T15:44:33.121Z,100028.00
2023-05-10T15:47:08.393Z,100035.00
2023-05-10T15:49:42.458Z,100040.00
2023-05-10T15:52:19.262Z,100040.00
2023-05-10T15:54:53.168Z,100039.00
2023-05-10T15:57:27.030Z,100023.00
2023-05-10T16:00:01.397Z,100035.00
2023-05-10T16:02:38.180Z,100036.00
2023-05-10T16:05:12.396Z,100043.00
2023-05-10T16:07:47.778Z,100045.00
2023-05-10T16:10:21.876Z,100037.00
2023-05-10T16:12:56.857Z,100036.00
2023-05-10T16:15:30.744Z,100043.00
2023-05-10T16:18:04.527Z,100040.00
2023-05-10T16:20:38.709Z,100044.00
2023-05-10T16:23:15.624Z,100053.00
2023-05-10T16:25:49.166Z,100059.00
2023-05-10T16:28:23.630Z,100052.00
2023-05-10T16:30:57.782Z,100056.00
2023-05-10T16:33:31.804Z,100059.00
2023-05-10T16:36:06.586Z,100061.00
2023-05-10T16:38:41.953Z,100074.00
2023-05-10T16:41:15.436Z,100066.00
2023-05-10T16:43:49.612Z,100073.00
2023-05-10T16:46:23.304Z,100082.00
2023-05-10T16:48:59.852Z,100089.00
2023-05-10T16:51:35.115Z,100081.00
2023-05-10T16:54:10.372Z,100091.00
2023-05-10T16:56:44.305Z,100102.00
2023-05-10T16:59:18.258Z,100093.00
2023-05-10T17:01:53.582Z,100086.00
2023-05-10T17:04:27.307Z,100100.00
2023-05-10T17:07:00.824Z,100106.00
2023-05-10T17:09:36.600Z,100110.00
2023-05-10T17:12:10.259Z,100096.00
2023-05-10T17:14:44.740Z,100118.00
2023-05-10T17:17:18.533Z,100119.00
2023-05-10T17:19:52.389Z,100126.00
2023-05-10T17:22:26.818Z,100120.00
2023-05-10T17:25:02.378Z,100124.00
2023-05-10T17:27:35.843Z,100130.00
2023-05-10T17:30:12.086Z,100127.00
2023-05-10T17:32:45.824Z,100133.00
2023-05-10T17:35:22.586Z,100135.00
2023-05-10T17:37:57.847Z,100143.00
2023-05-10T17:40:33.411Z,100147.00
2023-05-10T17:43:07.054Z,100140.00
2023-05-10T17:45:41.943Z,100138.00
2023-05-10T17:48:16.163Z,100146.00
2023-05-10T17:50:52.771Z,100142.00
2023-05-10T17:53:27.029Z,100147.00
2023-05-10T17:56:01.812Z,100144.00
2023-05-10T17:58:38.256Z,100157.00
2023-05-10T18:01:12.555Z,100156.00
2023-05-10T18:03:46.655Z,100154.00
2023-05-10T18:06:21.249Z,100163.00
2023-05-10T18:08:54.647Z,100154.00
2023-05-10T18:11:29.761Z,100161.00
2023-05-10T18:14:05.053Z,100165.00
2023-05-10T18:16:38.944Z,100167.00
2023-05-10T18:19:12.702Z,100172.00
2023-05-10T18:21:46.320Z,100161.00
2023-05-10T18:24:30.520Z,100164.00
2023-05-10T18:27:13.446Z,100162.00
2023-05-10T18:29:48.127Z,100169.00
2023-05-10T18:32:21.882Z,100169.00
2023-05-10T18:34:56.996Z,100173.00
2023-05-10T18:37:30.858Z,100165.00
2023-05-10T18:40:05.339Z,100175.00
2023-05-10T18:42:40.317Z,100178.00
2023-05-10T18:45:14.635Z,100176.00
2023-05-10T18:47:48.590Z,100176.00
2023-05-10T18:50:22.662Z,100179.00
2023-05-10T18:52:57.082Z,100181.00
2023-05-10T18:55:31.957Z,100185.00
2023-05-10T18:58:08.548Z,100181.00
2023-05-10T19:00:42.699Z,100188.00
2023-05-10T19:03:16.333Z,100190.00
2023-05-10T19:05:50.327Z,100196.00
2023-05-10T19:08:25.465Z,100185.00
2023-05-10T19:11:01.269Z,100196.00
2023-05-10T19:13:36.829Z,100199.00
2023-05-10T19:16:16.031Z,100199.00
2023-05-10T19:18:51.262Z,100200.00
2023-05-10T19:21:26.067Z,100194.00
2023-05-10T19:24:01.400Z,100197.00
2023-05-10T19:26:36.273Z,100199.00
2023-05-10T19:29:12.313Z,100201.00
2023-05-10T19:31:48.151Z,100210.00
2023-05-10T19:34:22.262Z,100212.00
2023-05-10T19:36:57.935Z,100210.00
2023-05-10T19:39:33.767Z,100207.00
2023-05-10T19:42:07.294Z,100195.00
2023-05-10T19:44:42.668Z,100219.00
2023-05-10T19:47:16.856Z,100210.00
2023-05-10T19:49:50.612Z,100215.00
2023-05-10T19:52:24.225Z,100217.00
2023-05-10T19:54:58.849Z,100216.00
2023-05-10T19:57:32.675Z,100217.00
2023-05-10T20:00:11.988Z,100218.00
2023-05-10T20:02:45.612Z,100217.00
2023-05-10T20:05:19.823Z,100220.00
2023-05-10T20:07:53.782Z,100218.00
2023-05-10T20:10:29.241Z,100216.00
2023-05-10T20:13:03.237Z,100215.00
2023-05-10T20:15:38.249Z,100206.00
2023-05-10T20:18:11.992Z,100215.00
2023-05-10T20:20:46.586Z,100210.00
2023-05-10T20:23:20.234Z,100215.00
2023-05-10T20:25:55.133Z,100212.00
2023-05-10T20:28:31.372Z,100217.00
2023-05-10T20:31:06.834Z,100218.00
2023-05-10T20:33:40.989Z,100222.00
2023-05-10T20:36:15.291Z,100221.00
2023-05-10T20:38:48.875Z,100227.00
2023-05-10T20:41:23.177Z,100218.00
2023-05-10T20:43:57.400Z,100223.00
2023-05-10T20:46:33.173Z,100225.00
2023-05-10T20:49:07.117Z,100220.00
2023-05-10T20:51:41.128Z,100220.00
2023-05-10T20:54:14.686Z,100212.00
2023-05-10T20:56:48.628Z,100218.00
2023-05-10T20:59:22.695Z,100224.00
2023-05-10T21:01:58.976Z,100216.00
2023-05-10T21:04:33.096Z,100211.00
2023-05-10T21:07:06.650Z,100218.00
2023-05-10T21:09:40.522Z,100218.00
2023-05-10T21:12:15.232Z,100216.00
2023-05-10T21:14:49.681Z,100219.00
2023-05-10T21:17:24.861Z,100218.00
2023-05-10T21:19:58.974Z,100217.00
2023-05-10T21:22:32.406Z,100213.00
2023-05-10T21:25:07.143Z,100211.00
2023-05-10T21:27:41.230Z,100210.00
2023-05-10T21:30:15.602Z,100222.00
2023-05-10T21:32:50.944Z,100220.00
2023-05-10T21:35:25.024Z,100226.00
2023-05-10T21:37:58.801Z,100224.00
2023-05-10T21:40:32.525Z,100223.00
2023-05-10T21:43:06.677Z,100227.00
2023-05-10T21:45:40.912Z,100224.00
2023-05-10T21:48:16.296Z,100220.00
2023-05-10T21:50:49.905Z,100215.00
2023-05-10T21:53:23.675Z,100215.00
2023-05-10T21:55:57.545Z,100215.00
2023-05-10T21:58:31.176Z,100214.00
2023-05-10T22:01:05.137Z,100217.00
2023-05-10T22:03:41.030Z,100210.00
2023-05-10T22:06:14.787Z,100217.00
2023-05-10T22:08:48.554Z,100214.00
2023-05-10T22:11:22.694Z,100225.00
2023-05-10T22:13:56.246Z,100220.00
2023-05-10T22:16:30.142Z,100224.00
2023-05-10T22:19:05.735Z,100222.00
2023-05-10T22:21:39.328Z,100217.00
2023-05-10T22:24:13.317Z,100228.00
2023-05-10T22:26:47.347Z,100229.00
2023-05-10T22:29:21.053Z,100235.00
2023-05-10T22:31:55.472Z,100228.00
2023-05-10T22:34:30.751Z,100236.00
2023-05-10T22:37:05.664Z,100239.00
2023-05-10T22:39:39.465Z,100231.00
2023-05-10T22:42:13.366Z,100241.00
2023-05-10T22:44:48.106Z,100222.00
2023-05-10T22:47:21.744Z,100234.00
2023-05-10T22:49:58.339Z,100239.00
2023-05-10T22:52:32.092Z,100243.00
2023-05-10T22:55:07.321Z,100237.00
2023-05-10T22:57:41.226Z,100238.00
2023-05-10T23:00:16.898Z,100234.00
2023-05-10T23:02:53.070Z,100240.00
2023-05-10T23:05:28.346Z,100233.00
2023-05-10T23:08:02.384Z,100236.00
2023-05-10T23:10:37.880Z,100237.00
2023-05-10T23:13:11.838Z,100231.00
2023-05-10T23:15:47.212Z,100239.00
2023-05-10T23:18:21.132Z,100239.00
2023-05-10T23:20:58.654Z,100233.00
2023-05-10T23:23:37.703Z,100235.00
2023-05-10T23:26:11.730Z,100235.00
2023-05-10T23:28:45.423Z,100233.00
2023-05-10T23:31:20.526Z,100231.00
2023-05-10T23:33:54.652Z,100234.00
2023-05-10T23:36:31.119Z,100238.00
2023-05-10T23:39:05.074Z,100235.00
2023-05-10T23:41:39.264Z,100235.00
2023-05-10T23:44:12.839Z,100232.00
2023-05-10T23:46:47.068Z,100227.00
2023-05-10T23:49:20.836Z,100224.00
2023-05-10T23:51:56.225Z,100226.00
2023-05-10T23:54:30.222Z,100228.00
2023-05-10T23:57:05.672Z,100225.00
2023-05-10T23:59:39.506Z,100228.00
